createdAt,value
2019-04-21T00:02:31.987Z,84.50
2019-04-21T00:05:10.741Z,85.50
2019-04-21T00:07:44.987Z,84.30
2019-04-21T00:10:18.753Z,86.70
2019-04-21T00:12:41.877Z,86.30
2019-04-21T00:15:06.113Z,86.60
2019-04-21T00:17:29.706Z,86.10
2019-04-21T00:20:10.272Z,86.80
2019-04-21T00:22:41.284Z,85.80
2019-04-21T00:25:13.951Z,86.60
2019-04-21T00:27:46.442Z,83.90
2019-04-21T00:30:21.679Z,86.10
2019-04-21T00:32:46.506Z,86.40
2019-04-21T00:35:08.536Z,85.10
2019-04-21T00:37:58.864Z,84.20
2019-04-21T00:40:23.996Z,83.50
2019-04-21T00:42:52.149Z,83.90
2019-04-21T00:45:20.681Z,85.40
2019-04-21T00:47:58.730Z,84.60
2019-04-21T00:50:31.430Z,84.80
2019-04-21T00:53:08.294Z,85.00
2019-04-21T00:55:45.865Z,86.90
2019-04-21T00:58:17.550Z,86.30
2019-04-21T01:00:49.578Z,87.70
2019-04-21T01:03:16.061Z,86.00
2019-04-21T01:05:50.146Z,86.00
2019-04-21T01:08:18.605Z,86.60
2019-04-21T01:10:38.114Z,86.60
2019-04-21T01:13:21.631Z,85.70
2019-04-21T01:15:48.918Z,85.70
2019-04-21T01:18:16.693Z,85.90
2019-04-21T01:20:27.966Z,85.20
2019-04-21T01:22:57.835Z,86.80
2019-04-21T01:25:33.041Z,85.10
2019-04-21T01:28:16.659Z,84.70
2019-04-21T01:30:50.690Z,86.10
2019-04-21T01:33:21.985Z,86.20
2019-04-21T01:35:48.259Z,86.30
2019-04-21T01:38:27.339Z,86.20
2019-04-21T01:40:56.744Z,84.80
2019-04-21T01:43:22.147Z,87.10
2019-04-21T01:45:49.120Z,85.20
2019-04-21T01:48:19.645Z,86.90
2019-04-21T01:50:51.098Z,87.60
2019-04-21T01:53:36.482Z,87.60
2019-04-21T01:56:11.624Z,87.30
2019-04-21T01:58:38.039Z,87.70
2019-04-21T02:01:08.693Z,88.30
2019-04-21T02:06:22.777Z,88.10
2019-04-21T02:08:51.431Z,88.10
2019-04-21T02:11:24.505Z,87.40
2019-04-21T02:13:57.585Z,87.20
2019-04-21T02:16:22.770Z,87.10
2019-04-21T02:18:52.958Z,87.20
2019-04-21T02:21:20.391Z,88.50
2019-04-21T02:24:01.928Z,89.40
2019-04-21T02:26:28.587Z,90.10
2019-04-21T02:29:02.018Z,90.10
2019-04-21T02:31:36.093Z,90.40
2019-04-21T02:34:11.359Z,88.30
2019-04-21T02:41:51.161Z,88.90
2019-04-21T02:44:08.644Z,89.30
2019-04-21T02:46:42.126Z,88.30
2019-04-21T02:49:31.117Z,90.20
2019-04-21T02:51:48.117Z,88.70
2019-04-21T02:54:43.937Z,90.30
2019-04-21T02:56:58.952Z,88.60
2019-04-21T03:04:42.597Z,90.50
2019-04-21T03:15:00.242Z,90.10
2019-04-21T03:17:22.016Z,91.00
2019-04-21T03:22:20.717Z,90.30
2019-04-21T03:27:31.101Z,90.00
2019-04-21T03:29:55.472Z,90.10
2019-04-21T03:37:23.404Z,90.00
2019-04-21T03:47:36.123Z,89.80
2019-04-21T03:52:29.980Z,91.10
2019-04-21T04:03:30.095Z,91.00
2019-04-21T04:05:49.443Z,90.60
2019-04-21T04:08:24.103Z,91.40
2019-04-21T04:10:42.748Z,91.30
2019-04-21T04:13:14.089Z,91.40
2019-04-21T04:15:49.043Z,91.50
2019-04-21T04:18:17.605Z,91.50
2019-04-21T04:23:35.546Z,91.30
2019-04-21T04:25:42.991Z,90.60
2019-04-21T04:28:24.386Z,90.30
2019-04-21T04:30:47.835Z,90.80
2019-04-21T04:33:20.809Z,91.30
2019-04-21T04:38:24.160Z,90.80
2019-04-21T04:41:06.160Z,90.90
2019-04-21T04:45:59.981Z,91.00
2019-04-21T04:48:35.215Z,91.30
2019-04-21T04:51:07.382Z,91.20
2019-04-21T04:56:12.321Z,91.00
2019-04-21T04:59:20.145Z,90.60
2019-04-21T05:11:39.887Z,90.60
2019-04-21T05:16:40.988Z,90.30
2019-04-21T05:21:34.420Z,90.50
2019-04-21T05:23:52.640Z,90.60
2019-04-21T05:26:14.352Z,90.90
2019-04-21T05:28:47.349Z,91.50
2019-04-21T05:31:31.710Z,91.10
2019-04-21T05:34:03.097Z,90.20
2019-04-21T05:36:44.783Z,91.10
2019-04-21T05:39:10.810Z,91.40
2019-04-21T05:41:37.310Z,91.10
2019-04-21T05:44:24.417Z,91.50
2019-04-21T05:47:05.559Z,90.10
2019-04-21T05:49:20.481Z,91.30
2019-04-21T05:51:52.631Z,91.10
2019-04-21T05:54:41.781Z,91.00
2019-04-21T05:57:05.755Z,91.60
2019-04-21T05:59:32.343Z,91.00
2019-04-21T06:02:16.574Z,90.50
2019-04-21T06:05:02.481Z,90.50
2019-04-21T06:07:13.313Z,90.00
2019-04-21T06:09:46.847Z,87.90
2019-04-21T06:12:11.725Z,88.00
2019-04-21T06:14:43.740Z,86.80
2019-04-21T06:17:19.238Z,85.90
2019-04-21T06:22:09.909Z,85.00
2019-04-21T06:24:54.338Z,84.10
2019-04-21T06:27:19.311Z,83.10
2019-04-21T06:29:46.641Z,82.90
2019-04-21T06:35:07.164Z,82.90
2019-04-21T06:37:40.567Z,82.20
2019-04-21T06:40:01.820Z,81.30
2019-04-21T06:42:16.494Z,80.90
2019-04-21T06:45:00.996Z,81.30
2019-04-21T06:47:47.441Z,81.00
2019-04-21T06:49:48.575Z,80.80
2019-04-21T06:52:44.829Z,80.20
2019-04-21T06:55:00.092Z,79.80
2019-04-21T06:57:21.823Z,78.90
2019-04-21T06:59:50.016Z,79.80
2019-04-21T07:02:37.800Z,78.10
2019-04-21T07:04:54.705Z,77.10
2019-04-21T07:07:26.126Z,77.70
2019-04-21T07:09:57.234Z,77.50
2019-04-21T07:12:22.011Z,76.80
2019-04-21T07:14:59.559Z,76.30
2019-04-21T07:17:28.191Z,76.80
2019-04-21T07:20:01.844Z,77.90
2019-04-21T07:22:35.359Z,76.50
2019-04-21T07:25:03.076Z,77.60
2019-04-21T07:27:31.990Z,77.10
2019-04-21T07:30:04.928Z,76.40
2019-04-21T07:32:51.534Z,75.00
2019-04-21T07:35:06.732Z,76.90
2019-04-21T07:37:29.923Z,75.00
2019-04-21T07:40:03.746Z,76.10
2019-04-21T07:42:28.176Z,76.20
2019-04-21T07:44:53.547Z,72.90
2019-04-21T07:47:36.637Z,72.10
2019-04-21T07:50:07.393Z,69.30
2019-04-21T07:52:46.919Z,69.40
2019-04-21T07:57:36.724Z,68.30
2019-04-21T08:00:29.706Z,66.80
2019-04-21T08:02:40.306Z,69.40
2019-04-21T08:05:13.569Z,67.10
2019-04-21T08:10:11.649Z,67.20
2019-04-21T08:12:39.069Z,66.50
2019-04-21T08:15:39.925Z,65.10
2019-04-21T08:17:42.571Z,63.50
2019-04-21T08:20:15.635Z,60.10
2019-04-21T08:22:48.105Z,60.20
2019-04-21T08:25:18.255Z,57.90
2019-04-21T08:27:49.546Z,58.00
2019-04-21T08:30:21.469Z,58.90
2019-04-21T08:40:29.107Z,58.40
2019-04-21T08:42:52.388Z,59.60
2019-04-21T08:45:21.827Z,58.70
2019-04-21T08:47:55.339Z,57.60
2019-04-21T08:50:22.610Z,57.60
2019-04-21T08:52:57.048Z,56.00
2019-04-21T08:55:40.076Z,57.10
2019-04-21T08:58:30.907Z,55.80
2019-04-21T09:00:56.299Z,54.40
2019-04-21T09:03:42.983Z,55.50
2019-04-21T09:06:29.791Z,55.50
2019-04-21T09:08:47.132Z,55.30
2019-04-21T09:11:13.050Z,55.20
2019-04-21T09:13:47.677Z,55.30
2019-04-21T09:16:16.894Z,54.50
2019-04-21T09:18:43.343Z,54.80
2019-04-21T09:21:19.430Z,55.40
2019-04-21T09:23:50.821Z,54.50
2019-04-21T09:26:18.649Z,54.70
2019-04-21T09:28:45.118Z,54.70
2019-04-21T09:31:06.316Z,55.10
2019-04-21T09:33:39.053Z,53.90
2019-04-21T09:36:07.917Z,53.20
2019-04-21T09:38:38.062Z,53.80
2019-04-21T09:41:06.658Z,54.30
2019-04-21T09:43:42.071Z,52.30
2019-04-21T09:46:06.519Z,52.80
2019-04-21T09:48:49.122Z,52.10
2019-04-21T09:51:06.538Z,51.10
2019-04-21T09:53:38.768Z,49.10
2019-04-21T09:56:13.129Z,48.60
2019-04-21T09:58:42.457Z,50.00
2019-04-21T10:01:19.739Z,48.20
2019-04-21T10:03:44.839Z,49.00
2019-04-21T10:06:09.288Z,49.10
2019-04-21T10:08:38.624Z,47.50
2019-04-21T10:11:07.968Z,45.30
2019-04-21T10:13:36.933Z,46.90
2019-04-21T10:16:23.986Z,45.30
2019-04-21T10:18:52.780Z,45.70
2019-04-21T10:21:22.040Z,44.80
2019-04-21T10:23:52.302Z,45.50
2019-04-21T10:26:22.173Z,44.50
2019-04-21T10:28:51.142Z,44.90
2019-04-21T10:31:20.793Z,45.90
2019-04-21T10:33:50.426Z,46.50
2019-04-21T10:36:20.403Z,46.60
2019-04-21T10:38:52.203Z,47.80
2019-04-21T10:41:21.379Z,47.70
2019-04-21T10:43:51.382Z,47.90
2019-04-21T10:46:20.339Z,47.30
2019-04-21T10:48:49.006Z,47.40
2019-04-21T10:51:19.048Z,45.70
2019-04-21T10:53:54.243Z,46.30
2019-04-21T10:56:30.623Z,46.40
2019-04-21T10:58:54.193Z,46.20
2019-04-21T11:01:25.224Z,45.80
2019-04-21T11:03:58.579Z,45.80
2019-04-21T11:06:28.793Z,45.50
2019-04-21T11:09:01.014Z,45.90
2019-04-21T11:11:28.260Z,45.80
2019-04-21T11:13:57.041Z,45.90
2019-04-21T11:16:26.905Z,45.10
2019-04-21T11:18:56.095Z,44.70
2019-04-21T11:21:25.183Z,44.00
2019-04-21T11:23:54.273Z,45.40
2019-04-21T11:26:24.330Z,44.60
2019-04-21T11:28:54.925Z,44.90
2019-04-21T11:31:25.012Z,45.60
2019-04-21T11:33:55.374Z,44.90
2019-04-21T11:36:25.014Z,45.70
2019-04-21T11:39:12.409Z,45.70
2019-04-21T11:41:29.827Z,45.10
2019-04-21T11:43:59.257Z,45.30
2019-04-21T11:46:28.685Z,46.20
2019-04-21T11:48:58.156Z,46.10
2019-04-21T11:51:27.242Z,46.80
2019-04-21T11:53:56.945Z,46.40
2019-04-21T11:56:27.117Z,46.90
2019-04-21T11:58:57.756Z,46.50
2019-04-21T12:01:27.651Z,47.30
2019-04-21T12:03:58.037Z,46.10
2019-04-21T12:06:32.244Z,46.40
2019-04-21T12:09:01.055Z,47.40
2019-04-21T12:11:29.410Z,46.60
2019-04-21T12:13:58.715Z,46.80
2019-04-21T12:16:28.632Z,46.60
2019-04-21T12:18:58.822Z,47.80
2019-04-21T12:21:31.139Z,48.80
2019-04-21T12:23:58.602Z,48.40
2019-04-21T12:26:28.341Z,47.80
2019-04-21T12:28:57.646Z,47.50
2019-04-21T12:31:45.497Z,47.50
2019-04-21T12:34:16.061Z,48.00
2019-04-21T12:36:46.296Z,48.40
2019-04-21T12:39:16.893Z,48.20
2019-04-21T12:41:46.682Z,47.60
2019-04-21T12:44:15.745Z,47.70
2019-04-21T12:46:45.594Z,47.50
2019-04-21T12:49:15.839Z,47.30
2019-04-21T12:51:46.126Z,47.30
2019-04-21T12:54:15.560Z,47.10
2019-04-21T12:56:45.573Z,46.20
2019-04-21T12:59:14.998Z,45.10
2019-04-21T13:01:45.287Z,45.70
2019-04-21T13:04:15.636Z,45.10
2019-04-21T13:06:45.761Z,46.30
2019-04-21T13:09:19.863Z,46.40
2019-04-21T13:11:46.899Z,46.90
2019-04-21T13:14:16.283Z,46.40
2019-04-21T13:16:45.682Z,47.30
2019-04-21T13:19:15.477Z,47.90
2019-04-21T13:21:45.715Z,48.50
2019-04-21T13:24:15.894Z,47.80
2019-04-21T13:26:52.241Z,47.10
2019-04-21T13:29:16.498Z,47.80
2019-04-21T13:31:45.522Z,47.60
2019-04-21T13:34:15.788Z,47.20
2019-04-21T13:36:45.531Z,46.80
2019-04-21T13:39:53.607Z,46.30
2019-04-21T13:42:06.344Z,46.30
2019-04-21T13:44:28.871Z,46.80
2019-04-21T13:46:58.815Z,46.80
2019-04-21T13:49:27.894Z,47.20
2019-04-21T13:51:56.612Z,47.30
2019-04-21T13:54:25.780Z,47.80
2019-04-21T13:56:56.398Z,48.50
2019-04-21T13:59:26.402Z,48.40
2019-04-21T14:01:55.844Z,47.80
2019-04-21T14:04:25.341Z,48.40
2019-04-21T14:06:54.551Z,47.20
2019-04-21T14:09:35.802Z,47.70
2019-04-21T14:11:55.771Z,46.20
2019-04-21T14:14:26.154Z,46.20
2019-04-21T14:16:56.180Z,46.80
2019-04-21T14:19:25.634Z,47.10
2019-04-21T14:21:55.351Z,46.80
2019-04-21T14:24:26.716Z,47.20
2019-04-21T14:26:56.295Z,47.50
2019-04-21T14:29:25.762Z,47.40
2019-04-21T14:31:56.038Z,47.60
2019-04-21T14:34:25.969Z,47.10
2019-04-21T14:36:56.810Z,47.10
2019-04-21T14:39:26.359Z,47.50
2019-04-21T14:41:56.104Z,47.00
2019-04-21T14:44:27.098Z,46.70
2019-04-21T14:47:00.990Z,47.70
2019-04-21T14:49:39.341Z,47.50
2019-04-21T14:52:12.992Z,47.10
2019-04-21T14:54:44.588Z,47.00
2019-04-21T14:57:13.980Z,47.00
2019-04-21T14:59:42.862Z,47.00
2019-04-21T15:02:12.055Z,47.20
2019-04-21T15:04:41.750Z,47.00
2019-04-21T15:07:10.639Z,46.30
2019-04-21T15:09:41.218Z,46.60
2019-04-21T15:12:10.180Z,46.80
2019-04-21T15:14:40.254Z,46.80
2019-04-21T15:17:09.710Z,46.80
2019-04-21T15:19:38.534Z,46.80
2019-04-21T15:22:08.233Z,47.40
2019-04-21T15:24:38.272Z,47.80
2019-04-21T15:27:07.532Z,48.60
2019-04-21T15:29:36.630Z,49.20
2019-04-21T15:32:06.333Z,49.70
2019-04-21T15:34:36.085Z,48.90
2019-04-21T15:37:06.168Z,49.20
2019-04-21T15:39:35.470Z,49.40
2019-04-21T15:42:04.565Z,50.40
2019-04-21T15:44:34.619Z,51.10
2019-04-21T15:47:04.102Z,50.90
2019-04-21T15:49:58.932Z,50.80
2019-04-21T15:52:22.281Z,50.70
2019-04-21T15:54:52.674Z,51.30
2019-04-21T15:57:26.030Z,51.50
2019-04-21T16:00:00.408Z,51.20
2019-04-21T16:02:34.851Z,51.90
2019-04-21T16:05:06.618Z,52.10
2019-04-21T16:07:36.212Z,52.30
2019-04-21T16:10:10.653Z,52.80
2019-04-21T16:12:40.157Z,52.40
2019-04-21T16:15:12.392Z,52.40
2019-04-21T16:17:41.802Z,52.40
2019-04-21T16:20:12.214Z,52.10
2019-04-21T16:22:42.327Z,52.60
2019-04-21T16:25:12.753Z,53.10
2019-04-21T16:27:41.650Z,53.10
2019-04-21T16:30:12.164Z,53.90
2019-04-21T16:32:42.415Z,53.70
2019-04-21T16:35:14.441Z,53.90
2019-04-21T16:37:43.663Z,54.90
2019-04-21T16:42:48.043Z,55.00
2019-04-21T16:45:18.837Z,54.30
2019-04-21T16:47:51.721Z,55.20
2019-04-21T16:50:21.383Z,54.20
2019-04-21T16:52:52.492Z,54.70
2019-04-21T16:55:33.175Z,54.10
2019-04-21T16:58:12.169Z,54.70
2019-04-21T17:00:42.486Z,55.60
2019-04-21T17:03:06.416Z,56.30
2019-04-21T17:05:36.275Z,55.90
2019-04-21T17:08:05.981Z,57.20
2019-04-21T17:10:35.439Z,57.10
2019-04-21T17:13:06.109Z,58.20
2019-04-21T17:15:51.749Z,58.50
2019-04-21T17:18:23.068Z,59.30
2019-04-21T17:20:45.059Z,59.00
2019-04-21T17:23:07.248Z,57.80
2019-04-21T17:25:37.053Z,57.70
2019-04-21T17:28:07.829Z,57.30
2019-04-21T17:30:36.943Z,56.90
2019-04-21T17:33:10.086Z,56.60
2019-04-21T17:35:36.933Z,56.40
2019-04-21T17:38:05.945Z,56.50
2019-04-21T17:40:35.729Z,56.50
2019-04-21T17:43:09.084Z,56.70
2019-04-21T17:45:37.192Z,57.10
2019-04-21T17:48:13.507Z,57.30
2019-04-21T17:50:45.514Z,57.40
2019-04-21T17:53:38.465Z,57.80
2019-04-21T17:56:25.985Z,58.00
2019-04-21T17:58:52.454Z,58.10
2019-04-21T18:01:25.336Z,58.50
2019-04-21T18:04:01.698Z,58.70
2019-04-21T18:06:26.152Z,58.90
2019-04-21T18:09:04.387Z,59.10
2019-04-21T18:11:22.778Z,59.90
2019-04-21T18:13:41.840Z,59.40
2019-04-21T18:16:23.049Z,59.60
2019-04-21T18:18:42.058Z,59.80
2019-04-21T18:21:21.122Z,59.80
2019-04-21T18:24:00.706Z,59.90
2019-04-21T18:26:34.719Z,60.40
2019-04-21T18:28:55.741Z,60.60
2019-04-21T18:31:26.971Z,60.70
2019-04-21T18:34:02.195Z,61.10
2019-04-21T18:36:38.406Z,60.60
2019-04-21T18:39:23.437Z,61.00
2019-04-21T18:42:02.533Z,61.30
2019-04-21T18:44:38.403Z,61.80
2019-04-21T18:47:12.182Z,62.50
2019-04-21T18:49:26.947Z,63.00
2019-04-21T18:52:22.407Z,63.10
2019-04-21T18:54:58.168Z,64.00
2019-04-21T18:57:26.599Z,64.10
2019-04-21T18:59:49.073Z,64.50
2019-04-21T19:02:20.763Z,64.70
2019-04-21T19:04:48.410Z,64.70
2019-04-21T19:07:32.716Z,64.70
2019-04-21T19:12:58.169Z,65.40
2019-04-21T19:15:04.808Z,65.50
2019-04-21T19:20:25.496Z,65.50
2019-04-21T19:22:35.984Z,66.30
2019-04-21T19:25:09.709Z,66.40
2019-04-21T19:27:45.594Z,67.00
2019-04-21T19:32:40.908Z,67.30
2019-04-21T19:34:59.402Z,66.90
2019-04-21T19:37:27.952Z,67.50
2019-04-21T19:40:09.560Z,67.20
2019-04-21T19:42:38.337Z,67.90
2019-04-21T19:45:14.966Z,68.20
2019-04-21T19:47:48.655Z,67.60
2019-04-21T19:50:19.482Z,67.80
2019-04-21T19:52:39.868Z,67.80
2019-04-21T19:55:00.564Z,66.80
2019-04-21T19:57:31.203Z,67.40
2019-04-21T20:00:03.777Z,66.40
2019-04-21T20:02:32.285Z,66.00
2019-04-21T20:05:06.996Z,65.80
2019-04-21T20:07:49.380Z,65.70
2019-04-21T20:10:24.034Z,66.00
2019-04-21T20:12:53.714Z,65.60
2019-04-21T20:15:33.011Z,67.70
2019-04-21T20:17:55.637Z,69.00
2019-04-21T20:20:09.006Z,68.90
2019-04-21T20:22:42.178Z,69.50
2019-04-21T20:25:15.216Z,69.50
2019-04-21T20:27:52.192Z,69.70
2019-04-21T20:30:29.815Z,68.90
2019-04-21T20:33:14.176Z,69.10
2019-04-21T20:35:42.960Z,68.90
2019-04-21T20:38:00.404Z,68.50
2019-04-21T20:40:25.291Z,68.70
2019-04-21T20:43:06.515Z,68.90
2019-04-21T20:45:33.511Z,67.90
2019-04-21T20:47:52.154Z,69.50
2019-04-21T20:50:29.870Z,69.50
2019-04-21T20:53:06.090Z,69.90
2019-04-21T20:55:26.479Z,70.10
2019-04-21T20:58:00.688Z,70.10
2019-04-21T21:00:41.231Z,69.90
2019-04-21T21:03:12.065Z,69.50
2019-04-21T21:05:35.864Z,69.50
2019-04-21T21:08:14.372Z,69.40
2019-04-21T21:10:40.066Z,69.60
2019-04-21T21:15:41.307Z,69.50
2019-04-21T21:18:26.241Z,69.90
2019-04-21T21:20:43.071Z,69.90
2019-04-21T21:23:09.940Z,69.90
2019-04-21T21:25:45.832Z,69.50
2019-04-21T21:28:04.498Z,70.40
2019-04-21T21:30:39.909Z,70.90
2019-04-21T21:33:21.430Z,71.20
2019-04-21T21:35:41.286Z,71.50
2019-04-21T21:38:19.969Z,71.80
2019-04-21T21:40:46.571Z,73.20
2019-04-21T21:43:01.522Z,74.50
2019-04-21T21:45:39.061Z,75.20
2019-04-21T21:48:18.764Z,76.10
2019-04-21T21:50:45.995Z,74.20
2019-04-21T21:53:08.406Z,75.80
2019-04-21T21:55:35.469Z,74.30
2019-04-21T21:58:04.418Z,75.40
2019-04-21T22:00:42.024Z,74.20
2019-04-21T22:03:14.957Z,74.50
2019-04-21T22:05:45.518Z,74.40
2019-04-21T22:08:10.162Z,75.60
2019-04-21T22:10:39.368Z,74.70
2019-04-21T22:13:12.829Z,76.50
2019-04-21T22:15:39.610Z,75.80
2019-04-21T22:18:33.362Z,76.10
2019-04-21T22:20:59.319Z,75.30
2019-04-21T22:23:25.445Z,75.60
2019-04-21T22:25:44.346Z,75.80
2019-04-21T22:28:15.651Z,75.40
2019-04-21T22:30:49.717Z,77.10
2019-04-21T22:33:18.082Z,76.60
2019-04-21T22:35:51.761Z,75.90
2019-04-21T22:38:34.824Z,76.10
2019-04-21T22:41:00.238Z,75.40
2019-04-21T22:43:26.187Z,74.60
2019-04-21T22:45:49.507Z,76.50
2019-04-21T22:48:38.733Z,74.90
2019-04-21T22:51:18.816Z,76.40
2019-04-21T22:53:44.547Z,76.50
2019-04-21T22:56:14.909Z,77.60
2019-04-21T22:58:43.959Z,77.70
2019-04-21T23:01:11.015Z,78.30
2019-04-21T23:03:50.271Z,77.60
2019-04-21T23:06:19.281Z,78.20
2019-04-21T23:08:45.399Z,78.20
2019-04-21T23:11:14.642Z,77.90
2019-04-21T23:13:45.041Z,77.40
2019-04-21T23:16:21.458Z,76.30
2019-04-21T23:19:05.936Z,75.50
2019-04-21T23:21:31.678Z,74.00
2019-04-21T23:24:05.842Z,75.90
2019-04-21T23:26:37.651Z,76.80
2019-04-21T23:29:08.938Z,73.80
2019-04-21T23:31:44.454Z,72.60
2019-04-21T23:33:52.558Z,71.90
2019-04-21T23:36:26.342Z,71.60
2019-04-21T23:38:55.041Z,71.70
2019-04-21T23:41:26.071Z,71.70
2019-04-21T23:44:00.393Z,73.00
2019-04-21T23:46:28.157Z,73.80
2019-04-21T23:49:09.858Z,75.00
2019-04-21T23:51:37.081Z,73.70
2019-04-21T23:53:57.412Z,73.40
2019-04-21T23:56:33.446Z,73.20
2019-04-21T23:59:02.976Z,74.30
